TNO5555 EKVG-BIRK
Flight info
| Callsign | TNO5555 |
|---|---|
| Flight time | 1h 15m |
| Altitude | 38000 |
| Route | MY DCT NASBU |
| Aircraft | A20N/M-SDE2E3FGHIRWXY/LB1 |
Departure
| Time | 2026-05-07 22:31 |
|---|---|
| Airport | Vágar Airport (EKVG) |
Arrival
| Time | 2026-05-07 23:46 |
|---|---|
| Airport | Reykjavík Domestic Airport (BIRK) |
| Time | Latitude | Longitude | Altitude | Speed | Heading |
|---|---|---|---|---|---|
| 2026-05-07 22:30 | 61.88810 | -7.17780 | 9605 ft | 280 kts | 252° |
| 2026-05-07 22:31 | 61.88570 | -7.21941 | 10210 ft | 290 kts | 268° |
| 2026-05-07 22:31 | 61.88863 | -7.26223 | 10837 ft | 298 kts | 283° |
| 2026-05-07 22:31 | 61.89689 | -7.30231 | 11497 ft | 305 kts | 299° |
| 2026-05-07 22:31 | 61.91038 | -7.33736 | 12159 ft | 311 kts | 316° |
| 2026-05-07 22:32 | 61.92797 | -7.36469 | 12805 ft | 317 kts | 327° |
| 2026-05-07 22:32 | 61.94739 | -7.38920 | 13131 ft | 333 kts | 329° |
| 2026-05-07 22:32 | 61.96801 | -7.41436 | 13373 ft | 350 kts | 329° |
| 2026-05-07 22:32 | 61.98961 | -7.44086 | 13625 ft | 367 kts | 329° |
| 2026-05-07 22:33 | 62.01211 | -7.46872 | 13888 ft | 381 kts | 329° |
| 2026-05-07 22:33 | 62.03522 | -7.49753 | 14337 ft | 388 kts | 329° |
| 2026-05-07 22:33 | 62.05866 | -7.52688 | 14910 ft | 392 kts | 329° |
| 2026-05-07 22:33 | 62.08186 | -7.55649 | 15490 ft | 395 kts | 326° |
| 2026-05-07 22:34 | 62.10298 | -7.59402 | 16066 ft | 397 kts | 309° |
| 2026-05-07 22:34 | 62.11855 | -7.64251 | 16635 ft | 397 kts | 297° |
| 2026-05-07 22:34 | 62.13111 | -7.69505 | 17252 ft | 399 kts | 292° |
| 2026-05-07 22:34 | 62.14214 | -7.74957 | 17837 ft | 401 kts | 289° |
| 2026-05-07 22:35 | 62.15254 | -7.80510 | 18351 ft | 404 kts | 288° |
| 2026-05-07 22:35 | 62.16287 | -7.86114 | 18850 ft | 407 kts | 288° |
| 2026-05-07 22:35 | 62.17338 | -7.91756 | 19359 ft | 410 kts | 288° |
| 2026-05-07 22:35 | 62.18401 | -7.97352 | 19862 ft | 413 kts | 288° |
| 2026-05-07 22:36 | 62.19502 | -8.03052 | 20348 ft | 416 kts | 288° |
| 2026-05-07 22:36 | 62.20620 | -8.08787 | 20838 ft | 419 kts | 288° |
| 2026-05-07 22:36 | 62.21750 | -8.14557 | 21306 ft | 422 kts | 287° |
| 2026-05-07 22:36 | 62.22888 | -8.20373 | 21768 ft | 424 kts | 287° |
| 2026-05-07 22:37 | 62.24032 | -8.26230 | 22214 ft | 427 kts | 287° |
| 2026-05-07 22:37 | 62.25180 | -8.32127 | 22661 ft | 430 kts | 286° |
| 2026-05-07 22:37 | 62.26333 | -8.38073 | 23105 ft | 432 kts | 286° |
| 2026-05-07 22:37 | 62.27471 | -8.43970 | 23479 ft | 435 kts | 286° |
| 2026-05-07 22:38 | 62.28628 | -8.49995 | 23807 ft | 438 kts | 287° |
| 2026-05-07 22:38 | 62.29790 | -8.56048 | 24160 ft | 439 kts | 287° |
| 2026-05-07 22:38 | 62.30956 | -8.62137 | 24512 ft | 441 kts | 287° |
| 2026-05-07 22:38 | 62.32123 | -8.68248 | 24864 ft | 443 kts | 287° |
| 2026-05-07 22:39 | 62.33294 | -8.74402 | 25192 ft | 445 kts | 287° |
| 2026-05-07 22:39 | 62.34465 | -8.80580 | 25570 ft | 447 kts | 288° |
| 2026-05-07 22:39 | 62.35640 | -8.86801 | 25884 ft | 449 kts | 289° |
| 2026-05-07 22:39 | 62.36817 | -8.93048 | 26203 ft | 451 kts | 289° |
| 2026-05-07 22:40 | 62.37980 | -8.99240 | 26517 ft | 453 kts | 288° |
| 2026-05-07 22:40 | 62.39162 | -9.05552 | 26818 ft | 455 kts | 288° |
| 2026-05-07 22:40 | 62.40347 | -9.11902 | 27110 ft | 457 kts | 288° |
| 2026-05-07 22:40 | 62.41531 | -9.18272 | 27396 ft | 459 kts | 288° |
| 2026-05-07 22:41 | 62.42717 | -9.24668 | 27792 ft | 459 kts | 288° |
| 2026-05-07 22:41 | 62.43899 | -9.31056 | 28217 ft | 457 kts | 288° |
| 2026-05-07 22:41 | 62.45073 | -9.37428 | 28625 ft | 456 kts | 288° |
| 2026-05-07 22:41 | 62.46244 | -9.43802 | 29040 ft | 456 kts | 288° |
| 2026-05-07 22:42 | 62.47407 | -9.50164 | 29405 ft | 455 kts | 287° |
| 2026-05-07 22:42 | 62.48567 | -9.56523 | 29750 ft | 455 kts | 287° |
| 2026-05-07 22:42 | 62.49709 | -9.62810 | 30027 ft | 455 kts | 287° |
| 2026-05-07 22:43 | 62.52033 | -9.75659 | 30429 ft | 458 kts | 287° |
| 2026-05-07 22:43 | 62.53191 | -9.82090 | 30666 ft | 459 kts | 288° |
| 2026-05-07 22:43 | 62.54344 | -9.88523 | 30967 ft | 458 kts | 289° |
| 2026-05-07 22:43 | 62.55492 | -9.94943 | 31313 ft | 455 kts | 289° |
| 2026-05-07 22:44 | 62.56628 | -10.01317 | 31632 ft | 453 kts | 289° |
| 2026-05-07 22:44 | 62.57747 | -10.07616 | 31810 ft | 454 kts | 289° |
| 2026-05-07 22:44 | 62.58880 | -10.14029 | 31947 ft | 456 kts | 288° |
| 2026-05-07 22:44 | 62.60014 | -10.20459 | 32206 ft | 455 kts | 288° |
| 2026-05-07 22:45 | 62.61140 | -10.26862 | 32477 ft | 454 kts | 287° |
| 2026-05-07 22:45 | 62.62264 | -10.33277 | 32633 ft | 455 kts | 287° |
| 2026-05-07 22:45 | 62.63387 | -10.39712 | 32900 ft | 455 kts | 289° |
| 2026-05-07 22:45 | 62.64503 | -10.46125 | 33175 ft | 453 kts | 289° |
| 2026-05-07 22:46 | 62.65610 | -10.52511 | 33397 ft | 452 kts | 289° |
| 2026-05-07 22:46 | 62.66717 | -10.58914 | 33569 ft | 452 kts | 288° |
| 2026-05-07 22:46 | 62.67805 | -10.65235 | 33737 ft | 452 kts | 289° |
| 2026-05-07 22:46 | 62.68905 | -10.71640 | 33926 ft | 452 kts | 288° |
| 2026-05-07 22:47 | 62.70003 | -10.78060 | 34062 ft | 452 kts | 289° |
| 2026-05-07 22:47 | 62.71096 | -10.84468 | 34206 ft | 452 kts | 288° |
| 2026-05-07 22:47 | 62.71821 | -10.88728 | 34305 ft | 452 kts | 288° |
| 2026-05-07 22:47 | 62.73278 | -10.97331 | 34450 ft | 452 kts | 288° |
| 2026-05-07 22:48 | 62.74364 | -11.03768 | 34593 ft | 452 kts | 288° |
| 2026-05-07 22:48 | 62.75447 | -11.10205 | 34727 ft | 452 kts | 288° |
| 2026-05-07 22:48 | 62.76515 | -11.16574 | 34848 ft | 452 kts | 288° |
| 2026-05-07 22:48 | 62.77590 | -11.23008 | 35000 ft | 451 kts | 289° |
| 2026-05-07 22:49 | 62.78662 | -11.29452 | 35170 ft | 450 kts | 289° |
| 2026-05-07 22:49 | 62.79727 | -11.35873 | 35323 ft | 449 kts | 289° |
| 2026-05-07 22:49 | 62.80789 | -11.42297 | 35397 ft | 450 kts | 289° |
| 2026-05-07 22:50 | 62.82914 | -11.55215 | 35534 ft | 452 kts | 289° |
| 2026-05-07 22:50 | 62.85020 | -11.68112 | 35690 ft | 454 kts | 289° |
| 2026-05-07 22:51 | 62.87136 | -11.81162 | 35835 ft | 455 kts | 289° |
| 2026-05-07 22:51 | 62.89243 | -11.94253 | 35994 ft | 456 kts | 288° |
| 2026-05-07 22:52 | 62.90994 | -12.05199 | 36093 ft | 457 kts | 289° |
| 2026-05-07 22:52 | 62.93090 | -12.18399 | 36231 ft | 459 kts | 289° |
| 2026-05-07 22:53 | 62.95517 | -12.33792 | 36414 ft | 459 kts | 289° |
| 2026-05-07 22:53 | 62.97244 | -12.44836 | 36503 ft | 461 kts | 288° |
| 2026-05-07 22:54 | 62.99316 | -12.58168 | 36639 ft | 461 kts | 288° |
| 2026-05-07 22:54 | 63.01382 | -12.71566 | 36721 ft | 463 kts | 288° |
| 2026-05-07 22:55 | 63.03442 | -12.85022 | 36823 ft | 464 kts | 288° |
| 2026-05-07 22:55 | 63.05824 | -13.00720 | 37003 ft | 464 kts | 288° |
| 2026-05-07 22:56 | 63.07519 | -13.11970 | 37079 ft | 466 kts | 288° |
| 2026-05-07 22:56 | 63.09549 | -13.25542 | 37210 ft | 466 kts | 288° |
| 2026-05-07 22:57 | 63.11574 | -13.39184 | 37260 ft | 468 kts | 288° |
| 2026-05-07 22:57 | 63.13576 | -13.52782 | 37309 ft | 470 kts | 288° |
| 2026-05-07 22:58 | 63.15581 | -13.66509 | 37478 ft | 469 kts | 288° |
| 2026-05-07 22:58 | 63.17574 | -13.80271 | 37529 ft | 470 kts | 288° |
| 2026-05-07 22:59 | 63.19559 | -13.94077 | 37625 ft | 471 kts | 288° |
| 2026-05-07 22:59 | 63.21536 | -14.07937 | 37702 ft | 471 kts | 288° |
| 2026-05-07 23:00 | 63.23486 | -14.21731 | 37773 ft | 472 kts | 288° |
| 2026-05-07 23:00 | 63.24463 | -14.28675 | 37892 ft | 470 kts | 288° |
| 2026-05-07 23:00 | 63.25433 | -14.35608 | 37895 ft | 472 kts | 288° |
| 2026-05-07 23:01 | 63.27371 | -14.49529 | 37987 ft | 472 kts | 288° |
| 2026-05-07 23:01 | 63.29281 | -14.63380 | 38036 ft | 472 kts | 288° |
| 2026-05-07 23:02 | 63.31192 | -14.77355 | 38094 ft | 472 kts | 288° |
| 2026-05-07 23:02 | 63.33071 | -14.91218 | 37456 ft | 463 kts | 288° |
| 2026-05-07 23:02 | 63.33995 | -14.98079 | 36697 ft | 461 kts | 288° |
| 2026-05-07 23:03 | 63.34907 | -15.04885 | 36101 ft | 456 kts | 289° |
| 2026-05-07 23:03 | 63.35796 | -15.11541 | 35432 ft | 454 kts | 288° |
| 2026-05-07 23:03 | 63.36696 | -15.18296 | 34643 ft | 454 kts | 288° |
| 2026-05-07 23:03 | 63.37585 | -15.25006 | 34000 ft | 451 kts | 288° |
| 2026-05-07 23:04 | 63.38464 | -15.31671 | 33296 ft | 447 kts | 288° |
| 2026-05-07 23:04 | 63.39333 | -15.38291 | 32595 ft | 442 kts | 289° |
| 2026-05-07 23:04 | 63.40190 | -15.44843 | 31923 ft | 438 kts | 289° |
| 2026-05-07 23:04 | 63.41034 | -15.51333 | 31278 ft | 433 kts | 289° |
| 2026-05-07 23:05 | 63.41872 | -15.57791 | 30497 ft | 432 kts | 289° |
| 2026-05-07 23:05 | 63.42690 | -15.64119 | 29721 ft | 429 kts | 289° |
| 2026-05-07 23:05 | 63.43510 | -15.70483 | 28962 ft | 424 kts | 290° |
| 2026-05-07 23:05 | 63.44318 | -15.76780 | 28182 ft | 420 kts | 290° |
| 2026-05-07 23:06 | 63.45117 | -15.83035 | 27421 ft | 416 kts | 289° |
| 2026-05-07 23:06 | 63.45901 | -15.89205 | 26779 ft | 410 kts | 289° |
| 2026-05-07 23:06 | 63.46672 | -15.95287 | 26067 ft | 406 kts | 288° |
| 2026-05-07 23:06 | 63.47437 | -16.01334 | 25396 ft | 402 kts | 288° |
| 2026-05-07 23:07 | 63.48188 | -16.07310 | 24788 ft | 396 kts | 288° |
| 2026-05-07 23:07 | 63.48917 | -16.13130 | 24194 ft | 391 kts | 288° |
| 2026-05-07 23:07 | 63.49654 | -16.19039 | 23554 ft | 386 kts | 288° |
| 2026-05-07 23:07 | 63.50361 | -16.24721 | 22835 ft | 382 kts | 288° |
| 2026-05-07 23:08 | 63.51069 | -16.30439 | 22103 ft | 379 kts | 288° |
| 2026-05-07 23:08 | 63.51767 | -16.36094 | 21397 ft | 375 kts | 288° |
| 2026-05-07 23:08 | 63.52457 | -16.41703 | 20711 ft | 372 kts | 288° |
| 2026-05-07 23:08 | 63.53139 | -16.47266 | 20039 ft | 368 kts | 288° |
| 2026-05-07 23:09 | 63.53806 | -16.52734 | 19681 ft | 357 kts | 288° |
| 2026-05-07 23:09 | 63.54442 | -16.57995 | 19462 ft | 343 kts | 288° |
| 2026-05-07 23:09 | 63.55052 | -16.63057 | 19239 ft | 329 kts | 289° |
| 2026-05-07 23:09 | 63.55639 | -16.67930 | 18930 ft | 320 kts | 289° |
| 2026-05-07 23:10 | 63.56216 | -16.72719 | 18478 ft | 316 kts | 289° |
| 2026-05-07 23:10 | 63.56779 | -16.77387 | 17931 ft | 314 kts | 289° |
| 2026-05-07 23:10 | 63.57347 | -16.82104 | 17366 ft | 311 kts | 289° |
| 2026-05-07 23:10 | 63.57907 | -16.86782 | 16827 ft | 309 kts | 289° |
| 2026-05-07 23:11 | 63.58460 | -16.91418 | 16302 ft | 307 kts | 289° |
| 2026-05-07 23:11 | 63.59008 | -16.96030 | 15777 ft | 304 kts | 289° |
| 2026-05-07 23:11 | 63.59551 | -17.00618 | 15272 ft | 302 kts | 289° |
| 2026-05-07 23:11 | 63.60087 | -17.05169 | 14760 ft | 300 kts | 289° |
| 2026-05-07 23:12 | 63.60618 | -17.09688 | 14268 ft | 298 kts | 289° |
| 2026-05-07 23:12 | 63.61137 | -17.14113 | 13773 ft | 296 kts | 289° |
| 2026-05-07 23:12 | 63.61659 | -17.18581 | 13228 ft | 294 kts | 289° |
| 2026-05-07 23:12 | 63.62175 | -17.23012 | 12697 ft | 292 kts | 288° |
| 2026-05-07 23:13 | 63.62686 | -17.27410 | 12207 ft | 289 kts | 288° |
| 2026-05-07 23:13 | 63.63189 | -17.31763 | 11714 ft | 287 kts | 288° |
| 2026-05-07 23:13 | 63.63690 | -17.36095 | 11225 ft | 285 kts | 288° |
| 2026-05-07 23:13 | 63.64185 | -17.40395 | 10748 ft | 283 kts | 288° |
| 2026-05-07 23:14 | 63.64674 | -17.44659 | 10301 ft | 280 kts | 288° |
| 2026-05-07 23:14 | 63.65159 | -17.48897 | 10163 ft | 279 kts | 288° |
| 2026-05-07 23:14 | 63.65637 | -17.53078 | 10143 ft | 280 kts | 288° |
| 2026-05-07 23:14 | 63.66121 | -17.57326 | 10154 ft | 280 kts | 288° |
| 2026-05-07 23:15 | 63.66603 | -17.61566 | 10154 ft | 280 kts | 288° |
| 2026-05-07 23:15 | 63.67085 | -17.65822 | 10157 ft | 281 kts | 288° |
| 2026-05-07 23:15 | 63.67564 | -17.70073 | 10152 ft | 278 kts | 288° |
| 2026-05-07 23:15 | 63.68032 | -17.74250 | 10154 ft | 272 kts | 288° |
| 2026-05-07 23:16 | 63.68491 | -17.78356 | 10155 ft | 270 kts | 288° |
| 2026-05-07 23:16 | 63.68949 | -17.82458 | 10154 ft | 270 kts | 288° |
| 2026-05-07 23:16 | 63.69408 | -17.86568 | 10158 ft | 270 kts | 288° |
| 2026-05-07 23:16 | 63.69860 | -17.90625 | 10157 ft | 270 kts | 288° |
| 2026-05-07 23:17 | 63.70317 | -17.94735 | 10159 ft | 270 kts | 288° |
| 2026-05-07 23:17 | 63.70771 | -17.98844 | 10159 ft | 270 kts | 288° |
| 2026-05-07 23:17 | 63.71225 | -18.02959 | 10158 ft | 270 kts | 288° |
| 2026-05-07 23:17 | 63.71678 | -18.07077 | 10159 ft | 270 kts | 288° |
| 2026-05-07 23:18 | 63.72128 | -18.11186 | 10151 ft | 270 kts | 287° |
| 2026-05-07 23:18 | 63.72575 | -18.15280 | 10160 ft | 268 kts | 287° |
| 2026-05-07 23:18 | 63.73019 | -18.19361 | 10160 ft | 268 kts | 287° |
| 2026-05-07 23:18 | 63.73457 | -18.23395 | 10162 ft | 268 kts | 287° |
| 2026-05-07 23:19 | 63.73899 | -18.27474 | 10169 ft | 268 kts | 287° |
| 2026-05-07 23:19 | 63.74340 | -18.31559 | 10168 ft | 268 kts | 287° |
| 2026-05-07 23:19 | 63.74779 | -18.35640 | 10169 ft | 268 kts | 287° |
| 2026-05-07 23:19 | 63.75219 | -18.39728 | 10164 ft | 268 kts | 287° |
| 2026-05-07 23:20 | 63.75659 | -18.43821 | 10176 ft | 268 kts | 287° |
| 2026-05-07 23:20 | 63.76095 | -18.47907 | 10172 ft | 267 kts | 287° |
| 2026-05-07 23:20 | 63.76529 | -18.51988 | 10170 ft | 267 kts | 287° |
| 2026-05-07 23:20 | 63.76963 | -18.56082 | 10169 ft | 268 kts | 287° |
| 2026-05-07 23:21 | 63.77389 | -18.60118 | 10175 ft | 268 kts | 287° |
| 2026-05-07 23:21 | 63.77820 | -18.64207 | 10188 ft | 268 kts | 287° |
| 2026-05-07 23:21 | 63.78251 | -18.68317 | 10190 ft | 269 kts | 287° |
| 2026-05-07 23:21 | 63.78682 | -18.72434 | 10192 ft | 269 kts | 287° |
| 2026-05-07 23:22 | 63.79113 | -18.76552 | 10189 ft | 269 kts | 287° |
| 2026-05-07 23:22 | 63.79544 | -18.80684 | 10194 ft | 269 kts | 287° |
| 2026-05-07 23:22 | 63.79972 | -18.84806 | 10192 ft | 269 kts | 287° |
| 2026-05-07 23:22 | 63.80399 | -18.88930 | 10194 ft | 269 kts | 287° |
| 2026-05-07 23:23 | 63.80825 | -18.93050 | 10191 ft | 269 kts | 287° |
| 2026-05-07 23:23 | 63.81250 | -18.97176 | 10195 ft | 269 kts | 287° |
| 2026-05-07 23:23 | 63.81672 | -19.01300 | 10192 ft | 268 kts | 287° |
| 2026-05-07 23:23 | 63.82088 | -19.05407 | 10203 ft | 266 kts | 288° |
| 2026-05-07 23:24 | 63.82497 | -19.09425 | 10199 ft | 266 kts | 287° |
| 2026-05-07 23:24 | 63.82916 | -19.13507 | 10202 ft | 266 kts | 287° |
| 2026-05-07 23:24 | 63.83332 | -19.17600 | 10200 ft | 267 kts | 288° |
| 2026-05-07 23:24 | 63.83740 | -19.21692 | 10215 ft | 266 kts | 288° |
| 2026-05-07 23:25 | 63.84149 | -19.25771 | 10217 ft | 265 kts | 287° |
| 2026-05-07 23:25 | 63.84564 | -19.29849 | 10223 ft | 266 kts | 287° |
| 2026-05-07 23:25 | 63.84974 | -19.33947 | 10218 ft | 266 kts | 287° |
| 2026-05-07 23:25 | 63.85384 | -19.38036 | 10220 ft | 266 kts | 287° |
| 2026-05-07 23:26 | 63.85788 | -19.42074 | 10220 ft | 266 kts | 286° |
| 2026-05-07 23:26 | 63.86195 | -19.46176 | 10221 ft | 267 kts | 286° |
| 2026-05-07 23:26 | 63.86602 | -19.50294 | 10218 ft | 267 kts | 286° |
| 2026-05-07 23:26 | 63.87000 | -19.54400 | 10216 ft | 266 kts | 287° |
| 2026-05-07 23:27 | 63.87801 | -19.62580 | 9960 ft | 266 kts | 286° |
| 2026-05-07 23:27 | 63.88205 | -19.66668 | 9538 ft | 266 kts | 286° |
| 2026-05-07 23:27 | 63.88601 | -19.70753 | 9179 ft | 264 kts | 287° |
| 2026-05-07 23:28 | 63.88997 | -19.74808 | 8784 ft | 263 kts | 287° |
| 2026-05-07 23:28 | 63.89379 | -19.78799 | 8458 ft | 261 kts | 288° |
| 2026-05-07 23:28 | 63.89763 | -19.82815 | 8116 ft | 260 kts | 288° |
| 2026-05-07 23:28 | 63.90147 | -19.86820 | 7754 ft | 259 kts | 288° |
| 2026-05-07 23:29 | 63.90532 | -19.90813 | 7383 ft | 259 kts | 286° |
| 2026-05-07 23:29 | 63.90915 | -19.94798 | 7035 ft | 258 kts | 286° |
| 2026-05-07 23:29 | 63.91294 | -19.98773 | 6718 ft | 257 kts | 286° |
| 2026-05-07 23:29 | 63.91668 | -20.02723 | 6359 ft | 255 kts | 287° |
| 2026-05-07 23:30 | 63.92037 | -20.06636 | 6222 ft | 252 kts | 287° |
| 2026-05-07 23:30 | 63.92405 | -20.10535 | 6213 ft | 253 kts | 287° |
| 2026-05-07 23:30 | 63.92775 | -20.14450 | 6217 ft | 254 kts | 287° |
| 2026-05-07 23:30 | 63.93140 | -20.18326 | 6217 ft | 254 kts | 287° |
| 2026-05-07 23:31 | 63.93507 | -20.22251 | 6216 ft | 254 kts | 287° |
| 2026-05-07 23:31 | 63.93874 | -20.26180 | 6217 ft | 254 kts | 287° |
| 2026-05-07 23:31 | 63.94239 | -20.30112 | 6221 ft | 254 kts | 286° |
| 2026-05-07 23:31 | 63.94541 | -20.34074 | 6220 ft | 257 kts | 278° |
| 2026-05-07 23:32 | 63.94620 | -20.38140 | 6222 ft | 257 kts | 276° |
| 2026-05-07 23:32 | 63.94650 | -20.42208 | 6222 ft | 258 kts | 275° |
| 2026-05-07 23:32 | 63.94663 | -20.46291 | 6226 ft | 258 kts | 275° |
| 2026-05-07 23:32 | 63.94667 | -20.50376 | 6227 ft | 258 kts | 275° |
| 2026-05-07 23:33 | 63.94668 | -20.54461 | 6227 ft | 258 kts | 275° |
| 2026-05-07 23:33 | 63.94666 | -20.58491 | 6228 ft | 258 kts | 274° |
| 2026-05-07 23:33 | 63.94663 | -20.62575 | 6225 ft | 258 kts | 274° |
| 2026-05-07 23:33 | 63.94658 | -20.66658 | 6224 ft | 258 kts | 274° |
| 2026-05-07 23:34 | 63.94652 | -20.70747 | 6225 ft | 258 kts | 274° |
| 2026-05-07 23:34 | 63.94644 | -20.74834 | 6225 ft | 258 kts | 274° |
| 2026-05-07 23:34 | 63.94636 | -20.78914 | 6219 ft | 258 kts | 274° |
| 2026-05-07 23:34 | 63.94626 | -20.82975 | 6225 ft | 257 kts | 274° |
| 2026-05-07 23:35 | 63.94614 | -20.87031 | 6224 ft | 256 kts | 274° |
| 2026-05-07 23:35 | 63.94602 | -20.91025 | 6226 ft | 256 kts | 274° |
| 2026-05-07 23:35 | 63.94589 | -20.95079 | 5922 ft | 257 kts | 274° |
| 2026-05-07 23:35 | 63.94575 | -20.99138 | 5579 ft | 256 kts | 274° |
| 2026-05-07 23:36 | 63.94559 | -21.03171 | 5243 ft | 254 kts | 274° |
| 2026-05-07 23:36 | 63.94542 | -21.07130 | 4903 ft | 253 kts | 274° |
| 2026-05-07 23:36 | 63.94525 | -21.11118 | 4543 ft | 252 kts | 273° |
| 2026-05-07 23:36 | 63.94507 | -21.15128 | 4161 ft | 253 kts | 273° |
| 2026-05-07 23:37 | 63.94487 | -21.19135 | 3801 ft | 253 kts | 272° |
| 2026-05-07 23:37 | 63.94466 | -21.23070 | 3450 ft | 253 kts | 273° |
| 2026-05-07 23:37 | 63.94444 | -21.27075 | 3143 ft | 250 kts | 273° |
| 2026-05-07 23:37 | 63.94420 | -21.30985 | 2939 ft | 247 kts | 273° |
| 2026-05-07 23:38 | 63.94397 | -21.34923 | 2962 ft | 251 kts | 274° |
| 2026-05-07 23:38 | 63.94374 | -21.38916 | 3062 ft | 254 kts | 273° |
| 2026-05-07 23:38 | 63.94348 | -21.42952 | 3623 ft | 256 kts | 272° |
| 2026-05-07 23:38 | 63.94320 | -21.46967 | 3935 ft | 252 kts | 273° |
| 2026-05-07 23:39 | 63.94291 | -21.50899 | 3988 ft | 253 kts | 272° |
| 2026-05-07 23:39 | 63.94260 | -21.54894 | 3968 ft | 252 kts | 272° |
| 2026-05-07 23:39 | 63.94230 | -21.58873 | 3974 ft | 252 kts | 272° |
| 2026-05-07 23:39 | 63.94198 | -21.62854 | 3975 ft | 252 kts | 275° |
| 2026-05-07 23:40 | 63.94165 | -21.66826 | 3972 ft | 251 kts | 273° |
| 2026-05-07 23:40 | 63.94132 | -21.70785 | 3968 ft | 251 kts | 274° |
| 2026-05-07 23:40 | 63.94095 | -21.74758 | 3967 ft | 251 kts | 274° |
| 2026-05-07 23:40 | 63.94060 | -21.78684 | 3814 ft | 252 kts | 275° |
| 2026-05-07 23:41 | 63.94031 | -21.82558 | 3690 ft | 236 kts | 275° |
| 2026-05-07 23:41 | 63.94269 | -21.86071 | 3480 ft | 217 kts | 295° |
| 2026-05-07 23:41 | 63.95057 | -21.88836 | 3117 ft | 203 kts | 323° |
| 2026-05-07 23:41 | 63.96202 | -21.90361 | 2980 ft | 180 kts | 346° |
| 2026-05-07 23:42 | 63.97333 | -21.90862 | 3016 ft | 152 kts | 356° |
| 2026-05-07 23:42 | 63.98311 | -21.91075 | 2998 ft | 133 kts | 359° |
| 2026-05-07 23:42 | 63.99220 | -21.91229 | 2972 ft | 128 kts | 359° |
| 2026-05-07 23:42 | 64.00089 | -21.91378 | 2790 ft | 123 kts | 360° |
| 2026-05-07 23:43 | 64.00941 | -21.91526 | 2592 ft | 122 kts | 359° |
| 2026-05-07 23:43 | 64.01787 | -21.91675 | 2397 ft | 122 kts | 359° |
| 2026-05-07 23:43 | 64.02639 | -21.91830 | 2206 ft | 123 kts | 359° |
| 2026-05-07 23:43 | 64.03489 | -21.91986 | 2015 ft | 123 kts | 358° |
| 2026-05-07 23:44 | 64.04329 | -21.92142 | 1818 ft | 123 kts | 358° |
| 2026-05-07 23:44 | 64.05180 | -21.92299 | 1640 ft | 123 kts | 358° |
| 2026-05-07 23:44 | 64.06033 | -21.92455 | 1447 ft | 122 kts | 358° |
| 2026-05-07 23:44 | 64.06880 | -21.92613 | 1262 ft | 122 kts | 358° |
| 2026-05-07 23:45 | 64.07731 | -21.92773 | 1072 ft | 123 kts | 358° |
| 2026-05-07 23:45 | 64.08560 | -21.92929 | 860 ft | 122 kts | 357° |
| 2026-05-07 23:45 | 64.09419 | -21.93093 | 695 ft | 122 kts | 356° |
| 2026-05-07 23:45 | 64.10260 | -21.93253 | 497 ft | 122 kts | 356° |
| 2026-05-07 23:46 | 64.11090 | -21.93411 | 317 ft | 121 kts | 358° |
| 2026-05-07 23:46 | 64.11932 | -21.93571 | 145 ft | 123 kts | 356° |
| 2026-05-07 23:46 | 64.12720 | -21.93717 | 55 ft | 107 kts | 353° |
| 2026-05-07 23:46 | 64.13198 | -21.93807 | 49 ft | 35 kts | 357° |
| 2026-05-07 23:47 | 64.13299 | -21.93818 | 48 ft | 22 kts | 352° |
| 2026-05-07 23:47 | 64.13467 | -21.93856 | 44 ft | 25 kts | 355° |
| 2026-05-07 23:47 | 64.13614 | -21.93807 | 44 ft | 11 kts | 61° |
| 2026-05-07 23:47 | 64.13593 | -21.93729 | 44 ft | 14 kts | 136° |
| 2026-05-07 23:48 | 64.13471 | -21.93617 | 45 ft | 20 kts | 178° |
| 2026-05-07 23:48 | 64.13335 | -21.93581 | 46 ft | 20 kts | 172° |
| 2026-05-07 23:48 | 64.13197 | -21.93555 | 48 ft | 19 kts | 180° |
| 2026-05-07 23:48 | 64.13066 | -21.93562 | 48 ft | 18 kts | 188° |
| 2026-05-07 23:49 | 64.13030 | -21.93558 | 51 ft | 5 kts | 150° |
| 2026-05-07 23:49 | 64.13017 | -21.93498 | 49 ft | 0 kts | 100° |